createdAt,value
2018-06-01T00:00:55.647Z,55.08
2018-06-01T00:03:23.195Z,55.95
2018-06-01T00:05:50.756Z,52.55
2018-06-01T00:08:19.765Z,53.90
2018-06-01T00:10:47.892Z,55.33
2018-06-01T00:13:15.475Z,54.03
2018-06-01T00:15:43.080Z,53.70
2018-06-01T00:18:10.856Z,56.72
2018-06-01T00:20:39.939Z,56.42
2018-06-01T00:23:07.884Z,55.97
2018-06-01T00:25:35.448Z,55.17
2018-06-01T00:28:03.608Z,56.55
2018-06-01T00:30:32.805Z,56.47
2018-06-01T00:33:01.996Z,61.78
2018-06-01T00:35:30.494Z,58.92
2018-06-01T00:37:58.047Z,60.47
2018-06-01T00:40:26.783Z,57.13
2018-06-01T00:42:54.346Z,62.45
2018-06-01T00:45:21.875Z,56.83
2018-06-01T00:47:52.667Z,57.72
2018-06-01T00:50:22.700Z,57.58
2018-06-01T00:52:50.475Z,55.00
2018-06-01T00:55:25.322Z,60.40
2018-06-01T00:57:54.067Z,60.80
2018-06-01T01:00:22.519Z,56.83
2018-06-01T01:02:51.788Z,57.40
2018-06-01T01:05:20.140Z,63.92
2018-06-01T01:07:49.008Z,60.40
2018-06-01T01:10:16.890Z,65.85
2018-06-01T01:12:45.792Z,64.53
2018-06-01T01:15:13.323Z,65.00
2018-06-01T01:17:42.219Z,63.53
2018-06-01T01:20:11.283Z,65.53
2018-06-01T01:22:39.646Z,65.93
2018-06-01T01:25:07.235Z,62.22
2018-06-01T01:27:34.776Z,66.65
2018-06-01T01:30:03.265Z,67.82
2018-06-01T01:32:31.905Z,64.07
2018-06-01T01:34:59.496Z,60.83
2018-06-01T01:37:33.420Z,61.95
2018-06-01T01:40:01.780Z,57.20
2018-06-01T01:42:29.602Z,59.10
2018-06-01T01:44:58.639Z,58.15
2018-06-01T01:47:26.279Z,60.12
2018-06-01T01:49:54.761Z,59.78
2018-06-01T01:52:22.331Z,60.60
2018-06-01T01:54:49.899Z,62.80
2018-06-01T01:57:18.821Z,59.83
2018-06-01T01:59:49.416Z,60.25
2018-06-01T02:02:18.137Z,64.25
2018-06-01T02:04:46.609Z,65.95
2018-06-01T02:07:14.191Z,66.93
2018-06-01T02:09:42.427Z,64.15
2018-06-01T02:12:09.948Z,62.38
2018-06-01T02:14:37.499Z,58.53
2018-06-01T02:17:05.930Z,62.90
2018-06-01T02:19:34.651Z,56.72
2018-06-01T02:22:03.594Z,60.22
2018-06-01T02:24:31.188Z,56.97
2018-06-01T02:26:58.880Z,65.97
2018-06-01T02:29:28.155Z,61.10
2018-06-01T02:31:56.535Z,59.17
2018-06-01T02:34:25.116Z,70.00
2018-06-01T02:36:52.893Z,64.70
2018-06-01T02:39:20.463Z,63.60
2018-06-01T02:41:48.959Z,59.92
2018-06-01T02:44:17.693Z,66.87
2018-06-01T02:46:46.255Z,65.25
2018-06-01T02:49:13.824Z,60.30
2018-06-01T02:51:42.611Z,59.65
2018-06-01T02:54:10.391Z,58.90
2018-06-01T02:56:38.764Z,60.33
2018-06-01T02:59:07.043Z,70.45
2018-06-01T03:01:35.412Z,67.28
2018-06-01T03:04:03.740Z,73.32
2018-06-01T03:06:43.889Z,74.20
2018-06-01T03:09:11.442Z,75.07
2018-06-01T03:11:40.568Z,73.00
2018-06-01T03:14:09.378Z,68.43
2018-06-01T03:16:37.812Z,70.18
2018-06-01T03:19:05.374Z,62.08
2018-06-01T03:21:32.973Z,64.95
2018-06-01T03:24:01.196Z,63.90
2018-06-01T03:26:29.544Z,62.78
2018-06-01T03:28:58.123Z,69.55
2018-06-01T03:31:26.767Z,65.40
2018-06-01T03:33:55.140Z,65.40
2018-06-01T03:36:23.473Z,68.53
2018-06-01T03:38:51.858Z,69.00
2018-06-01T03:41:19.399Z,63.95
2018-06-01T03:43:47.967Z,62.92
2018-06-01T03:46:15.938Z,59.83
2018-06-01T03:48:44.441Z,63.45
2018-06-01T03:51:12.055Z,57.88
2018-06-01T03:53:40.223Z,55.97
2018-06-01T03:56:09.348Z,61.92
2018-06-01T03:58:38.089Z,55.03
2018-06-01T04:01:05.707Z,55.60
2018-06-01T04:03:34.099Z,54.25
2018-06-01T04:06:02.536Z,54.78
2018-06-01T04:08:30.171Z,56.63
2018-06-01T04:10:59.307Z,55.17
2018-06-01T04:13:28.046Z,55.60
2018-06-01T04:15:56.970Z,54.45
2018-06-01T04:18:25.711Z,54.58
2018-06-01T04:20:53.763Z,55.17
2018-06-01T04:23:22.951Z,54.65
2018-06-01T04:25:50.702Z,55.90
2018-06-01T04:28:19.466Z,53.33
2018-06-01T04:30:48.407Z,53.08
2018-06-01T04:33:16.869Z,53.08
2018-06-01T04:35:45.911Z,50.80
2018-06-01T04:38:13.535Z,51.33
2018-06-01T04:40:41.123Z,52.72
2018-06-01T04:43:10.636Z,52.22
2018-06-01T04:45:39.258Z,52.95
2018-06-01T04:48:07.572Z,54.60
2018-06-01T04:50:36.146Z,51.08
2018-06-01T04:53:04.399Z,51.60
2018-06-01T04:55:33.239Z,50.42
2018-06-01T04:58:02.055Z,50.25
2018-06-01T05:00:30.139Z,50.65
2018-06-01T05:02:58.418Z,49.70
2018-06-01T05:05:26.059Z,50.58
2018-06-01T05:07:54.424Z,49.38
2018-06-01T05:10:22.735Z,49.38
2018-06-01T05:12:50.827Z,48.30
2018-06-01T05:15:20.013Z,49.58
2018-06-01T05:17:47.567Z,49.13
2018-06-01T05:20:15.343Z,47.78
2018-06-01T05:22:42.922Z,49.63
2018-06-01T05:25:10.516Z,47.70
2018-06-01T05:27:38.076Z,47.25
2018-06-01T05:30:06.683Z,47.50
2018-06-01T05:32:34.263Z,49.88
2018-06-01T05:35:02.339Z,47.80
2018-06-01T05:37:30.892Z,46.72
2018-06-01T05:39:58.514Z,48.20
2018-06-01T05:42:26.074Z,45.75
2018-06-01T05:44:53.749Z,46.97
2018-06-01T05:47:21.901Z,45.70
2018-06-01T05:49:49.427Z,47.88
2018-06-01T05:52:17.827Z,48.47
2018-06-01T05:54:45.378Z,45.95
2018-06-01T05:57:13.601Z,45.30
2018-06-01T05:59:41.685Z,47.67
2018-06-01T06:02:09.231Z,45.55
2018-06-01T06:04:37.623Z,43.85
2018-06-01T06:07:06.105Z,42.40
2018-06-01T06:09:35.090Z,40.95
2018-06-01T06:12:04.479Z,40.90
2018-06-01T06:14:34.117Z,39.13
2018-06-01T06:17:03.491Z,35.55
2018-06-01T06:19:31.107Z,36.22
2018-06-01T06:21:59.059Z,35.92
2018-06-01T06:24:27.188Z,34.20
2018-06-01T06:26:56.978Z,33.95
2018-06-01T06:29:25.724Z,33.10
2018-06-01T06:31:53.340Z,32.35
2018-06-01T06:34:20.875Z,31.10
2018-06-01T06:36:48.449Z,31.95
2018-06-01T06:39:16.280Z,29.98
2018-06-01T06:41:45.103Z,29.63
2018-06-01T06:44:12.935Z,31.25
2018-06-01T06:46:40.508Z,30.40
2018-06-01T06:49:08.079Z,29.80
2018-06-01T06:51:36.424Z,28.83
2018-06-01T06:54:04.627Z,27.83
2018-06-01T06:56:33.289Z,28.27
2018-06-01T06:59:00.807Z,27.48
2018-06-01T07:01:28.334Z,27.35
2018-06-01T07:03:55.872Z,27.65
2018-06-01T07:06:23.396Z,27.25
2018-06-01T07:08:50.928Z,25.40
2018-06-01T07:11:18.450Z,26.00
2018-06-01T07:13:45.979Z,26.50
2018-06-01T07:16:13.503Z,26.58
2018-06-01T07:18:41.039Z,26.27
2018-06-01T07:21:08.592Z,26.10
2018-06-01T07:23:36.154Z,27.23
2018-06-01T07:26:04.554Z,28.02
2018-06-01T07:28:32.098Z,29.52
2018-06-01T07:30:59.626Z,29.92
2018-06-01T07:33:27.159Z,28.40
2018-06-01T07:35:54.715Z,30.12
2018-06-01T07:38:23.742Z,30.90
2018-06-01T07:40:51.848Z,37.20
2018-06-01T07:43:19.459Z,31.02
2018-06-01T07:45:47.899Z,31.55
2018-06-01T07:48:16.403Z,31.95
2018-06-01T07:50:44.877Z,29.52
2018-06-01T07:53:13.656Z,30.37
2018-06-01T07:55:42.795Z,30.33
2018-06-01T07:58:10.350Z,32.40
2018-06-01T08:00:39.072Z,33.22
2018-06-01T08:03:07.480Z,32.55
2018-06-01T08:05:36.795Z,33.78
2018-06-01T08:08:04.323Z,37.67
2018-06-01T08:10:33.707Z,39.80
2018-06-01T08:13:01.919Z,40.83
2018-06-01T08:15:30.966Z,44.08
2018-06-01T08:17:59.512Z,44.03
2018-06-01T08:20:28.066Z,43.85
2018-06-01T08:22:56.527Z,45.92
2018-06-01T08:25:24.046Z,45.70
2018-06-01T08:27:51.572Z,45.63
2018-06-01T08:30:19.099Z,45.83
2018-06-01T08:32:46.634Z,44.75
2018-06-01T08:35:14.159Z,43.95
2018-06-01T08:37:41.670Z,45.70
2018-06-01T08:40:09.187Z,47.00
2018-06-01T08:42:36.715Z,47.53
2018-06-01T08:45:04.257Z,48.90
2018-06-01T08:47:31.791Z,51.55
2018-06-01T08:49:59.315Z,49.72
2018-06-01T08:52:27.443Z,51.40
2018-06-01T08:54:55.767Z,51.03
2018-06-01T08:57:23.951Z,52.38
2018-06-01T08:59:52.861Z,53.33
2018-06-01T09:02:21.823Z,52.15
2018-06-01T09:04:50.775Z,49.42
2018-06-01T09:07:18.319Z,43.92
2018-06-01T09:09:45.927Z,46.13
2018-06-01T09:12:13.467Z,46.20
2018-06-01T09:14:41.968Z,46.88
2018-06-01T09:17:10.243Z,53.40
2018-06-01T09:19:38.587Z,59.63
2018-06-01T09:22:07.357Z,74.45
2018-06-01T09:24:35.895Z,61.45
2018-06-01T09:27:03.643Z,65.37
2018-06-01T09:29:31.494Z,67.87
2018-06-01T09:32:00.446Z,49.13
2018-06-01T09:34:29.370Z,61.30
2018-06-01T09:36:57.832Z,64.93
2018-06-01T09:39:25.791Z,76.03
2018-06-01T09:41:54.597Z,62.58
2018-06-01T09:44:22.507Z,68.90
2018-06-01T09:46:50.677Z,57.45
2018-06-01T09:49:18.947Z,61.55
2018-06-01T09:51:47.542Z,55.67
2018-06-01T09:54:16.555Z,49.08
2018-06-01T09:56:46.399Z,52.03
2018-06-01T09:59:15.631Z,48.05
2018-06-01T10:01:44.100Z,48.05
2018-06-01T10:04:12.881Z,47.05
2018-06-01T10:06:41.623Z,45.78
2018-06-01T10:09:09.816Z,46.60
2018-06-01T10:11:38.047Z,44.28
2018-06-01T10:14:05.879Z,44.15
2018-06-01T10:16:33.856Z,43.92
2018-06-01T10:19:02.339Z,42.92
2018-06-01T10:21:30.680Z,41.53
2018-06-01T10:23:58.200Z,41.90
2018-06-01T10:26:26.820Z,40.78
2018-06-01T10:28:55.653Z,40.85
2018-06-01T10:31:25.355Z,40.70
2018-06-01T10:33:54.088Z,42.10
2018-06-01T10:36:22.544Z,41.70
2018-06-01T10:38:50.843Z,41.58
2018-06-01T10:41:19.083Z,41.88
2018-06-01T10:43:48.301Z,44.22
2018-06-01T10:46:17.198Z,41.33
2018-06-01T10:48:45.334Z,38.60
2018-06-01T10:51:13.783Z,37.75
2018-06-01T10:53:42.306Z,36.08
2018-06-01T10:56:09.851Z,32.17
2018-06-01T10:58:37.627Z,26.42
2018-06-01T11:01:06.882Z,24.02
2018-06-01T11:03:35.679Z,25.73
2018-06-01T11:06:03.996Z,25.35
2018-06-01T11:08:32.755Z,27.10
2018-06-01T11:11:01.520Z,26.90
2018-06-01T11:13:29.048Z,27.62
2018-06-01T11:15:56.605Z,24.87
2018-06-01T11:18:24.126Z,20.52
2018-06-01T11:20:51.664Z,23.60
2018-06-01T11:23:20.676Z,27.75
2018-06-01T11:25:48.241Z,27.62
2018-06-01T11:28:16.738Z,27.83
2018-06-01T11:30:44.351Z,24.10
2018-06-01T11:33:11.907Z,34.58
2018-06-01T11:35:39.433Z,24.02
2018-06-01T11:38:06.954Z,21.10
2018-06-01T11:40:34.467Z,24.05
2018-06-01T11:43:01.983Z,26.50
2018-06-01T11:45:29.588Z,25.52
2018-06-01T11:47:57.112Z,27.55
2018-06-01T11:50:24.642Z,26.30
2018-06-01T11:52:52.967Z,24.30
2018-06-01T11:55:20.497Z,24.98
2018-06-01T11:57:48.407Z,23.42
2018-06-01T12:00:16.279Z,24.90
2018-06-01T12:02:45.783Z,26.10
2018-06-01T12:05:14.251Z,26.80
2018-06-01T12:07:42.339Z,27.20
2018-06-01T12:10:11.552Z,25.05
2018-06-01T12:12:39.843Z,25.88
2018-06-01T12:15:08.083Z,24.05
2018-06-01T12:17:35.736Z,23.77
2018-06-01T12:20:03.315Z,24.17
2018-06-01T12:22:30.870Z,23.08
2018-06-01T12:25:00.085Z,20.83
2018-06-01T12:27:28.100Z,20.67
2018-06-01T12:29:56.850Z,21.20
2018-06-01T12:32:25.953Z,22.00
2018-06-01T12:34:54.107Z,22.65
2018-06-01T12:37:22.866Z,22.13
2018-06-01T12:39:50.728Z,24.27
2018-06-01T12:42:18.259Z,26.15
2018-06-01T12:44:46.344Z,24.48
2018-06-01T12:47:13.900Z,24.92
2018-06-01T12:49:41.486Z,26.27
2018-06-01T12:52:09.839Z,25.12
2018-06-01T12:54:38.374Z,26.83
2018-06-01T12:57:05.935Z,24.80
2018-06-01T12:59:33.471Z,26.67
2018-06-01T13:02:02.159Z,25.67
2018-06-01T13:04:30.887Z,27.52
2018-06-01T13:06:58.948Z,25.37
2018-06-01T13:09:27.286Z,24.73
2018-06-01T13:11:54.903Z,24.23
2018-06-01T13:14:23.480Z,24.40
2018-06-01T13:16:51.814Z,24.35
2018-06-01T13:19:20.556Z,24.50
2018-06-01T13:21:48.096Z,24.77
2018-06-01T13:24:16.338Z,21.83
2018-06-01T13:26:43.892Z,23.20
2018-06-01T13:29:11.475Z,23.02
2018-06-01T13:31:49.851Z,24.10
2018-06-01T13:36:58.722Z,21.65
2018-06-01T13:39:33.071Z,23.08
2018-06-01T13:42:00.875Z,23.98
2018-06-01T13:44:29.867Z,25.42
2018-06-01T13:46:58.555Z,23.55
2018-06-01T13:49:26.723Z,23.85
2018-06-01T13:51:55.267Z,23.67
2018-06-01T13:54:24.146Z,24.20
2018-06-01T13:56:52.243Z,25.12
2018-06-01T13:59:20.190Z,26.17
2018-06-01T14:01:47.792Z,27.30
2018-06-01T14:04:17.080Z,27.45
2018-06-01T14:06:44.850Z,26.90
2018-06-01T14:09:12.827Z,27.52
2018-06-01T14:11:40.422Z,25.62
2018-06-01T14:14:08.668Z,78.43
2018-06-01T14:16:36.507Z,34.53
2018-06-01T14:19:04.299Z,29.55
2018-06-01T14:21:32.524Z,27.90
2018-06-01T14:24:00.046Z,28.50
2018-06-01T14:26:27.810Z,28.17
2018-06-01T14:28:56.101Z,28.73
2018-06-01T14:31:23.630Z,28.55
2018-06-01T14:33:51.739Z,29.85
2018-06-01T14:36:19.255Z,30.85
2018-06-01T14:38:46.795Z,28.50
2018-06-01T14:41:15.278Z,28.30
2018-06-01T14:43:43.663Z,27.90
2018-06-01T14:46:11.183Z,26.73
2018-06-01T14:48:39.795Z,28.75
2018-06-01T14:51:07.495Z,28.55
2018-06-01T14:53:35.343Z,28.90
2018-06-01T14:56:03.135Z,27.62
2018-06-01T14:58:31.568Z,27.50
2018-06-01T15:00:59.158Z,27.30
2018-06-01T15:03:26.751Z,26.33
2018-06-01T15:05:54.267Z,27.17
2018-06-01T15:08:22.782Z,24.10
2018-06-01T15:10:52.623Z,26.00
2018-06-01T15:13:21.116Z,25.90
2018-06-01T15:15:50.470Z,23.95
2018-06-01T15:18:18.031Z,24.40
2018-06-01T15:20:45.619Z,31.80
2018-06-01T15:23:13.563Z,32.28
2018-06-01T15:25:41.096Z,36.28
2018-06-01T15:28:08.673Z,38.00
2018-06-01T15:30:36.224Z,41.15
2018-06-01T15:33:04.939Z,43.03
2018-06-01T15:35:32.455Z,43.47
2018-06-01T15:38:01.326Z,43.70
2018-06-01T15:40:29.603Z,42.08
2018-06-01T15:42:58.086Z,44.40
2018-06-01T15:45:27.235Z,41.83
2018-06-01T15:47:54.755Z,41.05
2018-06-01T15:50:22.942Z,41.00
2018-06-01T15:52:51.363Z,40.60
2018-06-01T15:55:19.939Z,39.92
2018-06-01T15:57:47.715Z,39.40
2018-06-01T16:00:15.289Z,38.13
2018-06-01T16:02:43.144Z,38.65
2018-06-01T16:05:10.719Z,36.17
2018-06-01T16:07:39.613Z,37.03
2018-06-01T16:10:08.066Z,37.55
2018-06-01T16:12:35.624Z,37.22
2018-06-01T16:15:03.227Z,36.00
2018-06-01T16:17:31.617Z,35.35
2018-06-01T16:19:59.994Z,35.90
2018-06-01T16:22:27.555Z,36.05
2018-06-01T16:24:55.171Z,37.30
2018-06-01T16:27:22.750Z,37.35
2018-06-01T16:29:50.528Z,37.17
2018-06-01T16:32:18.368Z,39.17
2018-06-01T16:34:45.934Z,39.42
2018-06-01T16:37:13.547Z,40.67
2018-06-01T16:39:42.075Z,41.95
2018-06-01T16:42:09.993Z,43.35
2018-06-01T16:44:37.579Z,41.20
2018-06-01T16:47:05.223Z,43.17
2018-06-01T16:49:33.691Z,41.15
2018-06-01T16:52:03.087Z,43.92
2018-06-01T16:54:30.634Z,45.00
2018-06-01T16:57:00.473Z,46.63
2018-06-01T16:59:29.454Z,48.58
2018-06-01T17:01:58.583Z,48.45
2018-06-01T17:04:27.055Z,50.92
2018-06-01T17:06:54.816Z,51.95
2018-06-01T17:09:23.731Z,52.85
2018-06-01T17:11:52.259Z,56.08
2018-06-01T17:14:20.359Z,56.67
2018-06-01T17:16:48.379Z,57.70
2018-06-01T17:19:16.223Z,58.78
2018-06-01T17:21:44.443Z,60.63
2018-06-01T17:24:12.730Z,62.78
2018-06-01T17:26:40.301Z,61.05
2018-06-01T17:29:08.851Z,61.80
2018-06-01T17:31:37.415Z,61.83
2018-06-01T17:34:06.668Z,63.70
2018-06-01T17:36:34.474Z,65.90
2018-06-01T17:39:03.249Z,64.18
2018-06-01T17:41:31.993Z,64.03
2018-06-01T17:43:59.551Z,60.08
2018-06-01T17:46:27.188Z,42.42
2018-06-01T17:48:54.783Z,33.10
2018-06-01T17:51:22.330Z,30.75
2018-06-01T17:53:50.268Z,32.22
2018-06-01T17:56:18.735Z,39.13
2018-06-01T17:58:46.284Z,40.65
2018-06-01T18:01:15.353Z,40.10
2018-06-01T18:03:42.879Z,59.97
2018-06-01T18:06:10.440Z,82.47
2018-06-01T18:08:38.600Z,78.68
2018-06-01T18:11:06.171Z,88.07
2018-06-01T18:13:33.723Z,80.80
2018-06-01T18:16:01.247Z,135.73
2018-06-01T18:18:28.791Z,116.43
2018-06-01T18:20:57.135Z,87.30
2018-06-01T18:23:24.667Z,112.53
2018-06-01T18:25:53.113Z,104.10
2018-06-01T18:28:20.645Z,123.62
2018-06-01T18:30:48.164Z,100.55
2018-06-01T18:33:15.716Z,134.98
2018-06-01T18:35:43.603Z,134.82
2018-06-01T18:38:11.221Z,156.30
2018-06-01T18:40:39.591Z,153.93
2018-06-01T18:43:08.166Z,134.18
2018-06-01T18:45:35.691Z,119.68
2018-06-01T18:48:03.216Z,139.88
2018-06-01T18:50:30.748Z,175.18
2018-06-01T18:52:58.284Z,179.57
2018-06-01T18:55:25.834Z,189.32
2018-06-01T18:57:53.354Z,167.23
2018-06-01T19:00:20.879Z,163.15
2018-06-01T19:02:49.171Z,135.77
2018-06-01T19:05:16.695Z,167.23
2018-06-01T19:07:44.216Z,130.02
2018-06-01T19:10:11.768Z,157.30
2018-06-01T19:12:39.332Z,125.12
2018-06-01T19:15:06.918Z,137.12
2018-06-01T19:17:34.459Z,131.50
2018-06-01T19:20:02.007Z,121.95
2018-06-01T19:22:30.305Z,139.90
2018-06-01T19:24:57.839Z,142.02
2018-06-01T19:27:26.145Z,133.23
2018-06-01T19:29:53.706Z,115.03
2018-06-01T19:32:21.228Z,118.57
2018-06-01T19:34:49.179Z,122.43
2018-06-01T19:37:17.451Z,120.82
2018-06-01T19:39:45.252Z,133.25
2018-06-01T19:42:12.800Z,120.57
2018-06-01T19:44:41.151Z,109.40
2018-06-01T19:47:08.671Z,105.35
2018-06-01T19:49:36.187Z,79.62
2018-06-01T19:52:03.706Z,46.85
2018-06-01T19:54:31.228Z,37.22
2018-06-01T19:56:58.750Z,42.58
2018-06-01T19:59:26.318Z,38.30
2018-06-01T20:01:53.804Z,40.17
2018-06-01T20:04:21.362Z,34.72
2018-06-01T20:06:48.994Z,30.70
2018-06-01T20:09:16.506Z,32.13
2018-06-01T20:11:44.019Z,35.10
2018-06-01T20:14:12.058Z,37.28
2018-06-01T20:16:39.628Z,38.45
2018-06-01T20:19:07.151Z,28.42
2018-06-01T20:21:34.683Z,27.70
2018-06-01T20:24:02.269Z,29.75
2018-06-01T20:26:29.825Z,28.90
2018-06-01T20:28:57.351Z,23.60
2018-06-01T20:31:25.154Z,25.88
2018-06-01T20:33:52.737Z,24.85
2018-06-01T20:36:20.284Z,24.27
2018-06-01T20:38:48.567Z,21.40
2018-06-01T20:41:16.811Z,22.70
2018-06-01T20:43:44.746Z,20.42
2018-06-01T20:46:13.069Z,21.15
2018-06-01T20:48:41.559Z,19.42
2018-06-01T20:51:09.087Z,17.17
2018-06-01T20:53:37.230Z,19.52
2018-06-01T20:56:04.762Z,18.95
2018-06-01T20:58:33.113Z,18.87
2018-06-01T21:01:00.715Z,18.55
2018-06-01T21:03:28.822Z,18.90
2018-06-01T21:05:56.640Z,22.30
2018-06-01T21:08:24.932Z,20.42
2018-06-01T21:10:53.215Z,25.77
2018-06-01T21:13:20.743Z,24.80
2018-06-01T21:15:49.387Z,28.50
2018-06-01T21:18:16.964Z,33.28
2018-06-01T21:20:45.388Z,37.35
2018-06-01T21:23:14.732Z,36.85
2018-06-01T21:25:42.269Z,40.60
2018-06-01T21:28:09.815Z,54.63
2018-06-01T21:30:38.891Z,49.80
2018-06-01T21:33:06.435Z,55.80
2018-06-01T21:35:34.657Z,61.10
2018-06-01T21:38:02.207Z,59.28
2018-06-01T21:40:29.732Z,69.72
2018-06-01T21:42:57.399Z,64.90
2018-06-01T21:45:24.923Z,74.80
2018-06-01T21:47:52.467Z,72.93
2018-06-01T21:50:19.992Z,77.47
2018-06-01T21:52:47.759Z,79.57
2018-06-01T21:55:15.341Z,91.32
2018-06-01T21:57:42.929Z,84.05
2018-06-01T22:00:11.320Z,93.40
2018-06-01T22:02:39.659Z,81.85
2018-06-01T22:05:08.119Z,95.72
2018-06-01T22:07:35.647Z,87.03
2018-06-01T22:10:03.176Z,83.28
2018-06-01T22:12:30.751Z,88.85
2018-06-01T22:14:58.379Z,80.03
2018-06-01T22:17:26.825Z,85.57
2018-06-01T22:19:54.839Z,77.18
2018-06-01T22:22:22.360Z,84.55
2018-06-01T22:24:49.881Z,85.55
2018-06-01T22:27:17.398Z,82.30
2018-06-01T22:29:44.950Z,94.82
2018-06-01T22:32:12.468Z,84.55
2018-06-01T22:34:40.480Z,89.35
2018-06-01T22:37:08.643Z,85.25
2018-06-01T22:39:36.199Z,104.18
2018-06-01T22:42:03.715Z,84.93
2018-06-01T22:44:31.976Z,90.47
2018-06-01T22:47:00.494Z,87.22
2018-06-01T22:49:28.131Z,82.37
2018-06-01T22:51:55.687Z,81.82
2018-06-01T22:54:23.334Z,94.95
2018-06-01T22:56:50.875Z,83.50
2018-06-01T22:59:19.574Z,86.82
2018-06-01T23:01:48.233Z,82.65
2018-06-01T23:04:15.755Z,83.00
2018-06-01T23:06:43.824Z,78.50
2018-06-01T23:09:12.275Z,89.35
2018-06-01T23:11:39.796Z,86.80
2018-06-01T23:14:07.360Z,77.80
2018-06-01T23:16:34.935Z,80.25
2018-06-01T23:19:03.404Z,83.22
2018-06-01T23:21:31.766Z,78.35
2018-06-01T23:23:59.326Z,94.35
2018-06-01T23:26:26.867Z,80.68
2018-06-01T23:28:55.171Z,86.07
2018-06-01T23:31:23.640Z,73.53
2018-06-01T23:33:51.195Z,71.07
2018-06-01T23:36:18.960Z,69.68
2018-06-01T23:38:46.846Z,73.15
2018-06-01T23:41:14.895Z,67.28
2018-06-01T23:43:42.436Z,70.93
2018-06-01T23:46:10.732Z,71.43
2018-06-01T23:48:38.276Z,69.90
2018-06-01T23:51:05.801Z,67.00
2018-06-01T23:53:33.331Z,67.95
2018-06-01T23:56:00.870Z,68.78
2018-06-01T23:58:28.411Z,75.65
